Time;durP1;ratioP1;P1;durP2;ratioP2;P2;SDS_P1;SDS_P2;PMS_P1;PMS_P2;Temp;Humidity;BMP_temperature;BMP_pressure;BME280_temperature;BME280_humidity;BME280_pressure;Samples;Min_cycle;Max_cycle;Signal;HPM_P1;HPM_P2
2021/01/11 00:00:25;;;;;;;30.60;26.07;;;0.80;99.90;;;;;;5112113;27;20790;-80
2021/01/11 00:02:53;;;;;;;37.03;26.23;;;0.70;99.90;;;;;;5105124;27;20484;-78
2021/01/11 00:05:21;;;;;;;28.13;25.07;;;0.60;99.90;;;;;;5100362;27;20458;-79
2021/01/11 00:07:47;;;;;;;33.80;26.50;;;0.60;99.90;;;;;;5113731;27;20456;-77
2021/01/11 00:10:15;;;;;;;35.03;26.67;;;0.50;99.90;;;;;;5113459;27;20451;-76
2021/01/11 00:12:44;;;;;;;34.40;27.30;;;0.50;99.90;;;;;;5105160;27;20705;-79
2021/01/11 00:15:14;;;;;;;33.10;26.93;;;0.50;99.90;;;;;;5100144;27;20456;-79
2021/01/11 00:17:42;;;;;;;32.00;26.80;;;0.50;99.90;;;;;;5108211;27;20467;-80
2021/01/11 00:20:10;;;;;;;37.27;28.87;;;0.50;99.90;;;;;;5099595;28;20493;-79
2021/01/11 00:22:36;;;;;;;38.27;28.80;;;0.50;99.90;;;;;;5110798;27;20457;-77
2021/01/11 00:25:04;;;;;;;37.53;28.00;;;0.50;99.90;;;;;;5104639;27;20473;-79
2021/01/11 00:27:30;;;;;;;42.50;30.10;;;0.40;99.90;;;;;;5105632;27;20918;-78
2021/01/11 00:29:56;;;;;;;34.20;26.77;;;0.40;99.90;;;;;;5110122;27;21017;-76
2021/01/11 00:32:23;;;;;;;32.33;27.40;;;0.30;99.90;;;;;;5107517;27;20457;-78
2021/01/11 00:34:50;;;;;;;35.17;28.37;;;0.20;99.90;;;;;;5099250;28;20552;-78
2021/01/11 00:37:17;;;;;;;34.33;28.33;;;0.20;99.90;;;;;;5110624;27;20463;-77
2021/01/11 00:39:43;;;;;;;35.93;28.47;;;0.20;99.90;;;;;;5105983;27;20560;-76
2021/01/11 00:42:09;;;;;;;36.43;30.70;;;0.20;99.90;;;;;;5103999;27;20460;-79
2021/01/11 00:44:35;;;;;;;32.70;29.03;;;0.10;99.90;;;;;;5099681;27;20999;-76
2021/01/11 00:47:03;;;;;;;33.17;27.83;;;0.00;99.90;;;;;;5102623;27;20459;-79
2021/01/11 00:49:30;;;;;;;41.20;29.57;;;-0.20;99.90;;;;;;5097615;27;20491;-78
2021/01/11 00:51:57;;;;;;;33.90;27.37;;;-0.20;99.90;;;;;;5105400;27;20503;-80
2021/01/11 00:54:24;;;;;;;39.17;28.57;;;-0.10;99.90;;;;;;5102321;27;21101;-79
2021/01/11 00:56:50;;;;;;;37.90;28.43;;;0.00;99.90;;;;;;5102233;27;20801;-79
2021/01/11 00:59:17;;;;;;;38.20;29.00;;;0.10;99.90;;;;;;5102136;27;20486;-78
2021/01/11 01:01:48;;;;;;;36.03;28.70;;;0.20;99.90;;;;;;5106853;27;20459;-80
2021/01/11 01:04:15;;;;;;;36.73;29.27;;;0.30;99.90;;;;;;5103446;27;21039;-79
2021/01/11 01:06:42;;;;;;;41.83;30.30;;;0.40;99.90;;;;;;5096280;28;21191;-77
2021/01/11 01:09:09;;;;;;;41.57;28.63;;;0.30;99.90;;;;;;5113167;27;20474;-80
2021/01/11 01:11:38;;;;;;;40.67;30.20;;;0.50;99.90;;;;;;5103550;27;20460;-79
2021/01/11 01:14:05;;;;;;;43.90;29.90;;;0.60;99.90;;;;;;5099130;27;20800;-77
2021/01/11 01:16:32;;;;;;;40.40;30.33;;;0.60;99.90;;;;;;5099374;28;20472;-77
2021/01/11 01:18:59;;;;;;;40.80;29.53;;;0.70;99.90;;;;;;5109128;27;20489;-78
2021/01/11 01:21:26;;;;;;;42.10;31.33;;;0.80;99.90;;;;;;5099483;27;20858;-79
2021/01/11 01:23:53;;;;;;;38.90;30.17;;;0.80;99.90;;;;;;5101470;27;20471;-78
2021/01/11 01:26:20;;;;;;;49.50;33.10;;;0.90;99.90;;;;;;5099737;27;20763;-79
2021/01/11 01:28:47;;;;;;;42.93;29.93;;;0.90;99.90;;;;;;5103793;27;21006;-77
2021/01/11 01:31:13;;;;;;;39.43;29.50;;;0.90;99.90;;;;;;5111579;27;20467;-78
2021/01/11 01:33:39;;;;;;;38.83;29.30;;;0.90;99.90;;;;;;5102743;28;20518;-77
2021/01/11 01:36:06;;;;;;;42.80;29.97;;;0.90;99.90;;;;;;5098000;28;20463;-77
2021/01/11 01:38:32;;;;;;;46.73;30.67;;;1.00;99.90;;;;;;5102138;28;20460;-80
2021/01/11 01:40:59;;;;;;;36.57;29.77;;;1.00;99.90;;;;;;5098443;28;20460;-79
2021/01/11 01:43:26;;;;;;;39.70;32.97;;;1.20;99.90;;;;;;5098603;28;20487;-80
2021/01/11 01:45:53;;;;;;;35.27;26.10;;;1.20;99.90;;;;;;5111060;27;20534;-78
2021/01/11 01:48:20;;;;;;;41.20;30.00;;;1.10;99.90;;;;;;5095468;27;20463;-78
2021/01/11 01:50:47;;;;;;;34.57;29.20;;;1.20;99.90;;;;;;5104105;27;20483;-77
2021/01/11 01:53:14;;;;;;;36.00;29.60;;;1.20;99.90;;;;;;5101066;27;20505;-76
2021/01/11 01:55:41;;;;;;;39.23;29.63;;;1.20;99.90;;;;;;5106639;27;20456;-79
2021/01/11 01:58:10;;;;;;;42.73;30.17;;;1.20;99.90;;;;;;5097191;27;20940;-76
2021/01/11 02:00:37;;;;;;;38.53;29.57;;;1.20;99.90;;;;;;5107145;27;21013;-79
2021/01/11 02:03:04;;;;;;;36.03;28.20;;;1.20;99.90;;;;;;5100712;28;20513;-76
2021/01/11 02:05:31;;;;;;;37.23;30.23;;;1.10;99.90;;;;;;5107333;27;20470;-79
2021/01/11 02:08:04;;;;;;;37.50;28.60;;;1.10;99.90;;;;;;5096756;28;20810;-79
2021/01/11 02:10:42;;;;;;;36.77;30.90;;;1.10;99.90;;;;;;5091294;28;20463;-78
2021/01/11 02:13:28;;;;;;;36.37;28.80;;;1.10;99.90;;;;;;5092677;28;20471;-76
2021/01/11 02:16:03;;;;;;;41.33;31.27;;;1.20;99.90;;;;;;5060767;28;20462;-78
2021/01/11 02:18:43;;;;;;;40.00;29.70;;;1.30;99.90;;;;;;5104592;28;20855;-79
2021/01/11 02:21:22;;;;;;;34.17;29.20;;;1.30;99.90;;;;;;5100196;28;20464;-78
2021/01/11 02:24:26;;;;;;;38.70;29.17;;;1.30;99.90;;;;;;5096449;28;20990;-76
2021/01/11 02:27:04;;;;;;;43.53;31.70;;;1.30;99.90;;;;;;5100076;28;20468;-77
2021/01/11 02:29:39;;;;;;;43.73;30.67;;;1.30;99.90;;;;;;5100581;28;20471;-79
2021/01/11 02:32:08;;;;;;;37.17;29.73;;;1.30;99.90;;;;;;5103149;28;20520;-78
2021/01/11 02:34:36;;;;;;;37.33;29.63;;;1.20;99.90;;;;;;5097881;28;20458;-76
2021/01/11 02:37:04;;;;;;;42.07;30.47;;;1.10;99.90;;;;;;5096013;28;20464;-78
2021/01/11 02:39:30;;;;;;;38.17;29.47;;;1.20;99.90;;;;;;5102875;28;20495;-77
2021/01/11 02:41:57;;;;;;;40.33;29.77;;;1.20;99.90;;;;;;5095155;28;20465;-76
2021/01/11 02:44:23;;;;;;;34.07;27.53;;;1.10;99.90;;;;;;5100933;28;20484;-77
2021/01/11 02:46:49;;;;;;;40.30;29.93;;;1.20;99.90;;;;;;5093298;28;20471;-75
2021/01/11 02:49:24;;;;;;;38.13;29.10;;;1.10;99.90;;;;;;5095957;28;20456;-77
2021/01/11 02:51:59;;;;;;;44.00;30.63;;;1.10;99.90;;;;;;5104286;28;20479;-77
2021/01/11 02:54:33;;;;;;;37.30;28.40;;;1.10;99.90;;;;;;5099756;28;20885;-76
2021/01/11 02:57:08;;;;;;;45.07;31.27;;;1.00;99.90;;;;;;5099070;28;20460;-78
2021/01/11 02:59:40;;;;;;;42.60;31.30;;;1.10;99.90;;;;;;5107356;28;20486;-77
2021/01/11 03:02:08;;;;;;;43.27;30.90;;;1.10;99.90;;;;;;5098701;28;20834;-79
2021/01/11 03:04:37;;;;;;;48.30;32.10;;;1.10;99.90;;;;;;5103472;28;20507;-78
2021/01/11 03:07:06;;;;;;;45.37;33.27;;;1.20;99.90;;;;;;5101958;28;20951;-79
2021/01/11 03:09:35;;;;;;;62.33;34.83;;;1.10;99.90;;;;;;5100647;28;20506;-74
2021/01/11 03:12:01;;;;;;;48.30;33.67;;;1.10;99.90;;;;;;5093368;28;20493;-77
2021/01/11 03:14:28;;;;;;;49.10;35.90;;;1.00;99.90;;;;;;5105289;28;20929;-76
2021/01/11 03:16:54;;;;;;;52.43;36.03;;;1.00;99.90;;;;;;5102125;27;20471;-76
2021/01/11 03:19:21;;;;;;;45.43;34.30;;;1.10;99.90;;;;;;5108030;28;20485;-76
2021/01/11 03:21:48;;;;;;;48.73;33.90;;;1.10;99.90;;;;;;5106549;27;20860;-78
2021/01/11 03:24:15;;;;;;;52.10;35.77;;;1.00;99.90;;;;;;5111893;27;20467;-76
2021/01/11 03:26:43;;;;;;;43.83;30.23;;;1.00;99.90;;;;;;5102862;28;20986;-78
2021/01/11 03:29:09;;;;;;;50.63;33.30;;;1.00;99.90;;;;;;5103186;28;20511;-77
2021/01/11 03:31:36;;;;;;;48.80;32.30;;;0.90;99.90;;;;;;5102985;27;20463;-76
2021/01/11 03:34:04;;;;;;;52.70;33.37;;;0.90;99.90;;;;;;5102332;27;20506;-76
2021/01/11 03:36:31;;;;;;;65.33;33.77;;;0.90;99.90;;;;;;5109021;28;20468;-75
2021/01/11 03:38:59;;;;;;;46.80;30.73;;;0.90;99.90;;;;;;5100172;28;20455;-75
2021/01/11 03:41:26;;;;;;;43.43;27.37;;;0.80;99.90;;;;;;5099219;28;20795;-78
2021/01/11 03:43:52;;;;;;;49.93;31.83;;;0.80;99.90;;;;;;5104471;28;20484;-77
2021/01/11 03:46:19;;;;;;;47.47;33.40;;;0.80;99.90;;;;;;5105879;27;20472;-76
2021/01/11 03:48:46;;;;;;;49.20;30.50;;;0.80;99.90;;;;;;5103412;28;20462;-76
2021/01/11 03:51:13;;;;;;;56.90;36.63;;;0.90;99.90;;;;;;5106220;27;20469;-76
2021/01/11 03:53:40;;;;;;;54.20;34.17;;;0.90;99.90;;;;;;5110517;27;20566;-76
2021/01/11 03:56:08;;;;;;;58.53;33.83;;;1.00;99.90;;;;;;5112060;27;20991;-76
2021/01/11 03:58:35;;;;;;;34.27;28.40;;;0.90;99.90;;;;;;5097581;27;20462;-78
2021/01/11 04:01:03;;;;;;;53.10;32.27;;;0.90;99.90;;;;;;5105611;27;20481;-75
2021/01/11 04:03:29;;;;;;;47.87;32.80;;;0.90;99.90;;;;;;5108629;27;20841;-76
2021/01/11 04:05:58;;;;;;;48.30;32.20;;;1.00;99.90;;;;;;5111191;27;20521;-78
2021/01/11 04:08:25;;;;;;;47.80;33.30;;;1.00;99.90;;;;;;5109709;27;20509;-76
2021/01/11 04:10:54;;;;;;;48.00;28.73;;;1.00;99.90;;;;;;5102851;27;20541;-76
2021/01/11 04:13:21;;;;;;;45.40;32.10;;;1.00;99.90;;;;;;5107272;27;20458;-76
2021/01/11 04:15:48;;;;;;;41.90;31.87;;;1.10;99.90;;;;;;5105448;27;20467;-77
2021/01/11 04:18:14;;;;;;;45.77;29.03;;;1.10;99.90;;;;;;5098102;27;20493;-76
2021/01/11 04:20:42;;;;;;;49.03;34.20;;;1.00;99.90;;;;;;5107084;27;20503;-75
2021/01/11 04:23:08;;;;;;;47.23;32.83;;;1.00;99.90;;;;;;5103779;28;20851;-77
2021/01/11 04:25:35;;;;;;;49.53;33.70;;;1.00;99.90;;;;;;5104529;28;20482;-75
2021/01/11 04:28:03;;;;;;;52.73;34.00;;;1.10;99.90;;;;;;5099622;28;20463;-75
2021/01/11 04:30:31;;;;;;;51.67;33.27;;;1.10;99.90;;;;;;5102259;27;20801;-77
2021/01/11 04:32:58;;;;;;;51.17;33.73;;;1.10;99.90;;;;;;5100512;27;20495;-75
2021/01/11 04:35:28;;;;;;;47.60;33.63;;;1.10;99.90;;;;;;5107212;27;20499;-77
2021/01/11 04:37:55;;;;;;;38.40;27.27;;;1.10;99.90;;;;;;5107263;27;20517;-74
2021/01/11 04:40:22;;;;;;;52.53;36.37;;;1.10;99.90;;;;;;5100870;27;20638;-75
2021/01/11 04:42:56;;;;;;;41.50;26.93;;;1.10;99.90;;;;;;5097390;28;20540;-75
2021/01/11 04:45:24;;;;;;;50.13;35.87;;;1.10;99.90;;;;;;5099512;28;20497;-75
2021/01/11 04:47:53;;;;;;;46.40;29.43;;;1.10;99.90;;;;;;5109842;27;20805;-75
2021/01/11 04:50:20;;;;;;;33.47;26.27;;;1.10;99.90;;;;;;5099793;27;20469;-76
2021/01/11 04:52:47;;;;;;;49.00;33.70;;;1.10;99.90;;;;;;5102950;27;20460;-74
2021/01/11 04:55:14;;;;;;;54.37;34.67;;;1.20;99.90;;;;;;5106834;27;20852;-77
2021/01/11 04:57:51;;;;;;;53.47;35.33;;;1.20;99.90;;;;;;5098647;27;20461;-77
2021/01/11 05:00:24;;;;;;;57.03;35.80;;;1.20;99.90;;;;;;5091897;27;20498;-75
2021/01/11 05:02:59;;;;;;;51.23;34.40;;;1.30;99.90;;;;;;5098317;27;20455;-76
2021/01/11 05:05:26;;;;;;;56.13;39.20;;;1.30;99.90;;;;;;5108993;27;20511;-77
2021/01/11 05:07:52;;;;;;;60.50;35.27;;;1.30;99.90;;;;;;5097160;28;20472;-76
2021/01/11 05:10:24;;;;;;;51.80;36.53;;;1.30;99.90;;;;;;5098713;27;20526;-74
2021/01/11 05:12:58;;;;;;;60.87;39.47;;;1.10;99.90;;;;;;5100172;27;20475;-74
2021/01/11 05:15:26;;;;;;;55.17;38.07;;;1.10;99.90;;;;;;5095658;27;20850;-75
2021/01/11 05:17:53;;;;;;;51.40;37.53;;;1.20;99.90;;;;;;5106279;28;20488;-75
2021/01/11 05:20:24;;;;;;;56.93;37.80;;;1.20;99.90;;;;;;5103125;28;20495;-76
2021/01/11 05:22:55;;;;;;;54.97;36.80;;;1.30;99.90;;;;;;5098434;28;20530;-76
2021/01/11 05:25:24;;;;;;;49.57;36.07;;;1.30;99.90;;;;;;5099398;28;20503;-76
2021/01/11 05:28:06;;;;;;;50.43;33.63;;;1.30;99.90;;;;;;5113013;27;20512;-74
2021/01/11 05:30:34;;;;;;;44.67;37.03;;;1.20;99.90;;;;;;5111633;27;20870;-75
2021/01/11 05:33:01;;;;;;;57.77;39.30;;;1.30;99.90;;;;;;5100839;28;20965;-77
2021/01/11 05:35:28;;;;;;;47.43;35.13;;;1.40;99.90;;;;;;5098865;28;20470;-75
2021/01/11 05:37:55;;;;;;;47.67;35.40;;;1.30;99.90;;;;;;5102616;28;20563;-74
2021/01/11 05:40:26;;;;;;;40.90;30.40;;;1.30;99.90;;;;;;5100495;28;20557;-75
2021/01/11 05:42:55;;;;;;;52.80;35.57;;;1.30;99.90;;;;;;5104349;28;20618;-75
2021/01/11 05:45:23;;;;;;;43.83;31.90;;;1.40;99.90;;;;;;5103028;28;20488;-73
2021/01/11 05:48:01;;;;;;;52.53;34.27;;;1.40;99.90;;;;;;5099647;28;20481;-76
2021/01/11 05:50:29;;;;;;;49.30;35.87;;;1.40;99.90;;;;;;5100625;28;20459;-76
2021/01/11 05:52:56;;;;;;;47.43;34.37;;;1.40;99.90;;;;;;5099093;28;20469;-73
2021/01/11 05:55:26;;;;;;;45.93;32.77;;;1.40;99.90;;;;;;5103822;28;20449;-74
2021/01/11 05:58:01;;;;;;;45.07;34.33;;;1.50;99.90;;;;;;5092748;28;20455;-75
2021/01/11 06:00:29;;;;;;;39.40;31.73;;;1.40;99.90;;;;;;5094252;27;20490;-76
2021/01/11 06:02:56;;;;;;;42.47;32.40;;;1.40;99.90;;;;;;5095949;28;20490;-75
2021/01/11 06:05:25;;;;;;;45.83;33.63;;;1.50;99.90;;;;;;5101226;28;20457;-76
2021/01/11 06:07:51;;;;;;;48.13;33.17;;;1.50;99.90;;;;;;5097461;28;20598;-74
2021/01/11 06:10:19;;;;;;;43.50;33.90;;;1.50;99.90;;;;;;5101531;28;20937;-74
2021/01/11 06:12:46;;;;;;;38.80;31.20;;;1.50;99.90;;;;;;5102111;28;20469;-74
2021/01/11 06:15:14;;;;;;;57.27;33.00;;;1.50;99.90;;;;;;5089848;28;20963;-75
2021/01/11 06:17:41;;;;;;;43.93;32.63;;;1.50;99.90;;;;;;5098282;28;20453;-75
2021/01/11 06:20:13;;;;;;;39.00;31.57;;;1.50;99.90;;;;;;5098987;28;20825;-75
2021/01/11 06:23:06;;;;;;;41.70;31.20;;;1.60;99.90;;;;;;5101629;28;20612;-76
2021/01/11 06:25:36;;;;;;;37.40;31.83;;;1.60;99.90;;;;;;5101997;28;20863;-76
2021/01/11 06:28:04;;;;;;;41.93;31.53;;;1.60;99.90;;;;;;5095576;28;20462;-76
2021/01/11 06:30:44;;;;;;;29.43;25.67;;;1.60;99.90;;;;;;5107989;28;20466;-74
2021/01/11 06:33:13;;;;;;;41.67;31.63;;;1.50;99.90;;;;;;5103452;28;21330;-73
2021/01/11 06:35:41;;;;;;;36.33;29.50;;;1.50;99.90;;;;;;5105023;28;20459;-76
2021/01/11 06:38:11;;;;;;;36.70;30.57;;;1.50;99.90;;;;;;5098295;28;20460;-76
2021/01/11 06:40:38;;;;;;;37.47;28.80;;;1.60;99.90;;;;;;5098660;28;20516;-73
2021/01/11 06:43:05;;;;;;;33.83;28.30;;;1.60;99.90;;;;;;5101438;28;20455;-75
2021/01/11 06:45:35;;;;;;;35.33;29.63;;;1.40;99.90;;;;;;5090050;28;20991;-76
2021/01/11 06:48:04;;;;;;;30.20;27.17;;;1.40;99.90;;;;;;5102635;28;20540;-75
2021/01/11 06:50:31;;;;;;;34.50;27.57;;;1.50;99.90;;;;;;5108129;27;20889;-75
2021/01/11 06:53:01;;;;;;;40.33;26.30;;;1.50;99.90;;;;;;5107265;27;20930;-74
2021/01/11 06:55:28;;;;;;;27.80;25.00;;;1.50;99.90;;;;;;5100754;27;20490;-74
2021/01/11 06:57:58;;;;;;;31.70;27.57;;;1.40;99.90;;;;;;5107716;27;20457;-74
2021/01/11 07:00:34;;;;;;;30.20;26.07;;;1.30;99.90;;;;;;5104289;27;20577;-75
2021/01/11 07:03:01;;;;;;;32.07;28.67;;;1.30;99.90;;;;;;5098906;27;20471;-74
2021/01/11 07:05:45;;;;;;;32.60;27.10;;;1.40;99.90;;;;;;5102194;27;20833;-74
2021/01/11 07:08:14;;;;;;;33.97;28.23;;;1.40;99.90;;;;;;5099644;27;20479;-74
2021/01/11 07:10:43;;;;;;;34.87;29.10;;;1.40;99.90;;;;;;5099084;27;20453;-74
2021/01/11 07:13:25;;;;;;;33.40;28.07;;;1.50;99.90;;;;;;5100963;28;20852;-77
2021/01/11 07:16:16;;;;;;;35.80;28.63;;;1.40;99.90;;;;;;5095266;28;21065;-76
2021/01/11 07:18:46;;;;;;;31.10;27.33;;;1.30;99.90;;;;;;5097264;28;20498;-75
2021/01/11 07:21:13;;;;;;;35.87;30.00;;;1.30;99.90;;;;;;5095947;28;21081;-75
2021/01/11 07:23:40;;;;;;;36.13;29.03;;;1.40;99.90;;;;;;5101235;28;20468;-76
2021/01/11 07:26:11;;;;;;;37.73;29.33;;;1.40;99.90;;;;;;5098238;28;20460;-73
2021/01/11 07:28:38;;;;;;;35.67;28.27;;;1.40;99.90;;;;;;5101770;28;21364;-76
2021/01/11 07:31:04;;;;;;;35.43;29.80;;;1.50;99.90;;;;;;5094967;28;20461;-74
2021/01/11 07:33:30;;;;;;;40.83;30.07;;;1.50;99.90;;;;;;5104435;27;20448;-75
2021/01/11 07:35:57;;;;;;;37.80;27.13;;;1.50;99.90;;;;;;5101164;28;20516;-76
2021/01/11 07:38:23;;;;;;;37.20;28.80;;;1.40;99.90;;;;;;5112236;27;20504;-75
2021/01/11 07:40:58;;;;;;;33.73;26.20;;;1.50;99.90;;;;;;5104220;27;20493;-76
2021/01/11 07:43:25;;;;;;;31.67;25.07;;;1.40;99.90;;;;;;5092966;28;20513;-72
2021/01/11 07:46:02;;;;;;;46.10;30.47;;;1.40;99.90;;;;;;5102427;27;20481;-74
2021/01/11 07:48:29;;;;;;;39.50;29.70;;;1.40;99.90;;;;;;5095949;27;20451;-75
2021/01/11 07:51:07;;;;;;;36.13;28.60;;;1.30;99.90;;;;;;5096282;27;20449;-76
2021/01/11 07:53:37;;;;;;;42.60;30.03;;;1.30;99.90;;;;;;5098685;27;21021;-75
2021/01/11 07:56:09;;;;;;;35.90;28.10;;;1.40;99.90;;;;;;5104012;27;20515;-76
2021/01/11 07:58:37;;;;;;;34.40;27.20;;;1.40;99.90;;;;;;5105683;27;20459;-77
2021/01/11 08:01:05;;;;;;;35.83;28.80;;;1.40;99.90;;;;;;5109350;27;20488;-75
2021/01/11 08:03:33;;;;;;;30.53;25.77;;;1.40;99.90;;;;;;5107663;28;20455;-73
2021/01/11 08:06:04;;;;;;;40.83;27.30;;;1.40;99.90;;;;;;5102022;28;20460;-74
2021/01/11 08:08:34;;;;;;;32.53;25.50;;;1.30;99.90;;;;;;5107962;27;20498;-74
2021/01/11 08:11:04;;;;;;;37.63;27.70;;;1.20;99.90;;;;;;5094485;27;20457;-76
2021/01/11 08:13:31;;;;;;;32.37;26.90;;;1.30;99.90;;;;;;5101556;27;22493;-76
2021/01/11 08:16:12;;;;;;;30.07;25.17;;;1.40;99.90;;;;;;5101846;28;20805;-74
2021/01/11 08:18:39;;;;;;;40.10;28.10;;;1.40;99.90;;;;;;5099039;27;20465;-74
2021/01/11 08:21:07;;;;;;;34.90;27.97;;;1.30;99.90;;;;;;5104202;27;20495;-75
2021/01/11 08:23:34;;;;;;;31.13;26.23;;;1.40;99.90;;;;;;5100578;27;20464;-74
2021/01/11 08:26:03;;;;;;;40.67;26.73;;;1.40;99.90;;;;;;5102799;27;20464;-75
2021/01/11 08:28:30;;;;;;;36.03;28.23;;;1.40;99.90;;;;;;5103965;27;20527;-74
2021/01/11 08:31:00;;;;;;;33.13;26.17;;;1.50;99.90;;;;;;5104971;27;20459;-75
2021/01/11 08:33:28;;;;;;;34.33;26.23;;;1.50;99.90;;;;;;5091432;28;20496;-76
2021/01/11 08:36:18;;;;;;;30.20;26.10;;;1.50;99.90;;;;;;5110356;27;20468;-77
2021/01/11 08:39:13;;;;;;;30.17;26.07;;;1.50;99.90;;;;;;5104501;27;20475;-77
2021/01/11 08:41:42;;;;;;;30.20;25.67;;;1.50;99.90;;;;;;5096581;28;20511;-74
2021/01/11 08:44:25;;;;;;;29.83;25.47;;;1.50;99.90;;;;;;5097776;27;20475;-75
2021/01/11 08:47:12;;;;;;;30.63;25.97;;;1.50;99.90;;;;;;5105826;27;20483;-75
2021/01/11 08:49:59;;;;;;;32.47;26.00;;;1.60;99.90;;;;;;5097751;27;20475;-76
2021/01/11 08:52:29;;;;;;;29.37;23.87;;;1.60;99.90;;;;;;5095758;27;20547;-75
2021/01/11 08:54:56;;;;;;;31.50;25.33;;;1.60;99.90;;;;;;5108204;27;20953;-77
2021/01/11 08:57:27;;;;;;;31.70;24.33;;;1.60;99.90;;;;;;5101015;27;20685;-74
2021/01/11 08:59:54;;;;;;;30.57;25.10;;;1.60;99.90;;;;;;5104578;27;20479;-77
2021/01/11 09:02:25;;;;;;;29.43;23.70;;;1.60;99.90;;;;;;5093980;27;20456;-76
2021/01/11 09:04:51;;;;;;;32.30;25.87;;;1.60;99.90;;;;;;5091632;28;20519;-77
2021/01/11 09:07:27;;;;;;;29.97;25.67;;;1.70;99.90;;;;;;5098705;27;21013;-75
2021/01/11 09:09:53;;;;;;;29.07;24.50;;;1.70;99.90;;;;;;5105792;27;20455;-77
2021/01/11 09:12:29;;;;;;;27.97;24.90;;;1.80;99.90;;;;;;5101774;27;20469;-77
2021/01/11 09:14:55;;;;;;;27.20;24.30;;;1.80;99.90;;;;;;5098117;27;20468;-77
2021/01/11 09:17:26;;;;;;;27.77;23.97;;;1.80;99.90;;;;;;5097977;27;20521;-76
2021/01/11 09:19:52;;;;;;;37.87;25.47;;;1.70;99.90;;;;;;5094412;28;20804;-75
2021/01/11 09:22:31;;;;;;;30.00;24.80;;;1.70;99.90;;;;;;5099835;28;20830;-78
2021/01/11 09:24:58;;;;;;;30.37;25.50;;;1.80;99.90;;;;;;5098544;27;20878;-76
2021/01/11 09:27:25;;;;;;;32.67;25.93;;;1.80;99.90;;;;;;5093752;27;20821;-77
2021/01/11 09:29:53;;;;;;;32.13;23.87;;;1.90;99.90;;;;;;5099933;27;20962;-76
2021/01/11 09:32:20;;;;;;;29.53;26.00;;;1.90;99.90;;;;;;5102725;27;20530;-76
2021/01/11 09:34:46;;;;;;;30.63;24.80;;;1.90;99.90;;;;;;5099558;27;20540;-75
2021/01/11 09:37:14;;;;;;;32.17;24.73;;;2.00;99.90;;;;;;5103152;27;20457;-76
2021/01/11 09:39:42;;;;;;;31.40;26.37;;;2.10;99.90;;;;;;5098071;28;20496;-79
2021/01/11 09:42:09;;;;;;;31.03;25.47;;;2.10;99.90;;;;;;5104454;27;20473;-75
2021/01/11 09:44:35;;;;;;;29.70;25.20;;;2.10;99.90;;;;;;5097340;27;20483;-75
2021/01/11 09:47:05;;;;;;;26.40;23.27;;;2.10;99.90;;;;;;5088983;28;20466;-76
2021/01/11 09:49:32;;;;;;;29.73;24.63;;;2.20;99.90;;;;;;5092456;28;20573;-75
2021/01/11 09:51:58;;;;;;;27.43;23.73;;;2.20;99.90;;;;;;5092625;28;20497;-78
2021/01/11 09:54:24;;;;;;;27.43;24.70;;;2.20;99.90;;;;;;5094106;28;20460;-77
2021/01/11 09:56:51;;;;;;;26.53;23.70;;;2.30;99.90;;;;;;5091904;28;21096;-80
2021/01/11 09:59:18;;;;;;;26.00;23.33;;;2.40;99.90;;;;;;5099993;27;20471;-76
2021/01/11 10:01:46;;;;;;;25.07;22.37;;;2.40;99.90;;;;;;5095284;27;20469;-75
2021/01/11 10:04:14;;;;;;;28.53;24.33;;;2.40;99.90;;;;;;5102576;27;20458;-79
2021/01/11 10:06:42;;;;;;;26.23;23.53;;;2.40;99.90;;;;;;5101612;27;20553;-75
2021/01/11 10:09:11;;;;;;;26.23;23.70;;;2.40;99.90;;;;;;5101582;27;20458;-76
2021/01/11 10:11:38;;;;;;;24.40;21.97;;;2.50;99.90;;;;;;5102790;28;20458;-80
2021/01/11 10:14:06;;;;;;;25.47;22.90;;;2.60;99.90;;;;;;5103900;27;20449;-76
2021/01/11 10:16:33;;;;;;;28.43;25.43;;;2.50;99.90;;;;;;5101801;27;20519;-77
2021/01/11 10:18:59;;;;;;;27.60;23.23;;;2.50;99.90;;;;;;5095278;28;20469;-78
2021/01/11 10:21:26;;;;;;;31.13;25.43;;;2.40;99.90;;;;;;5098739;28;20566;-76
2021/01/11 10:23:52;;;;;;;27.93;23.77;;;2.50;99.90;;;;;;5107246;27;20458;-80
2021/01/11 10:26:20;;;;;;;29.30;24.10;;;2.60;99.90;;;;;;5104120;27;20465;-78
2021/01/11 10:28:49;;;;;;;29.37;23.97;;;2.70;99.90;;;;;;5105934;27;20845;-76
2021/01/11 10:31:17;;;;;;;29.77;23.97;;;2.60;99.90;;;;;;5103380;27;20994;-79
2021/01/11 10:33:46;;;;;;;30.37;24.80;;;2.60;99.90;;;;;;5114157;27;20850;-76
2021/01/11 10:36:13;;;;;;;28.90;24.77;;;2.70;99.90;;;;;;5114156;27;20524;-79
2021/01/11 10:38:40;;;;;;;28.97;23.20;;;2.80;99.90;;;;;;5096319;27;20462;-77
2021/01/11 10:41:09;;;;;;;29.70;25.63;;;2.80;99.90;;;;;;5104892;27;20539;-75
2021/01/11 10:43:35;;;;;;;26.87;22.43;;;2.80;99.90;;;;;;5100640;28;20475;-78
2021/01/11 10:46:03;;;;;;;27.33;24.37;;;2.80;99.90;;;;;;5111712;27;20965;-77
2021/01/11 10:48:31;;;;;;;29.40;23.73;;;2.90;99.90;;;;;;5109958;27;20464;-79
2021/01/11 10:50:58;;;;;;;29.70;24.03;;;3.00;99.90;;;;;;5115623;27;20463;-79
2021/01/11 10:53:24;;;;;;;25.87;23.27;;;3.00;99.90;;;;;;5101359;27;20485;-76
2021/01/11 10:55:51;;;;;;;32.33;24.80;;;3.00;99.90;;;;;;5105579;27;20463;-79
2021/01/11 10:58:17;;;;;;;29.80;24.67;;;3.00;99.90;;;;;;5110118;27;20504;-77
2021/01/11 11:00:44;;;;;;;28.40;25.47;;;3.10;99.90;;;;;;5112389;27;20485;-75
2021/01/11 11:03:10;;;;;;;32.33;24.93;;;3.00;99.90;;;;;;5099318;27;20467;-76
2021/01/11 11:05:38;;;;;;;27.40;23.53;;;3.00;99.90;;;;;;5102930;27;21069;-76
2021/01/11 11:08:05;;;;;;;30.70;25.70;;;3.10;99.90;;;;;;5099497;27;20464;-81
2021/01/11 11:10:31;;;;;;;24.90;22.30;;;3.20;99.90;;;;;;5099436;27;20519;-78
2021/01/11 11:12:57;;;;;;;27.23;22.90;;;3.20;99.90;;;;;;5099020;27;20619;-77
2021/01/11 11:15:24;;;;;;;23.43;21.03;;;3.30;99.90;;;;;;5102118;27;20446;-78
2021/01/11 11:17:50;;;;;;;25.20;22.57;;;3.30;99.90;;;;;;5108293;27;20460;-78
2021/01/11 11:20:17;;;;;;;27.70;23.00;;;3.30;99.90;;;;;;5102490;27;20489;-77
2021/01/11 11:22:44;;;;;;;26.33;23.43;;;3.40;99.90;;;;;;5100014;27;20469;-80
2021/01/11 11:25:11;;;;;;;27.60;24.60;;;3.30;99.90;;;;;;5104701;27;20471;-75
2021/01/11 11:27:37;;;;;;;28.90;24.97;;;3.40;99.90;;;;;;5108918;27;20486;-79
2021/01/11 11:30:05;;;;;;;34.33;25.87;;;3.50;99.90;;;;;;5107185;27;20490;-81
2021/01/11 11:32:34;;;;;;;26.03;23.33;;;3.50;99.90;;;;;;5110738;27;20452;-77
2021/01/11 11:35:04;;;;;;;27.37;24.67;;;3.60;99.90;;;;;;5100408;27;20852;-78
2021/01/11 11:37:30;;;;;;;24.93;21.80;;;3.70;99.90;;;;;;5096674;28;20510;-80
2021/01/11 11:39:57;;;;;;;25.93;23.33;;;3.80;99.90;;;;;;5110419;27;20474;-78
2021/01/11 11:42:23;;;;;;;25.10;22.80;;;3.90;99.90;;;;;;5109122;27;20826;-79
2021/01/11 11:44:51;;;;;;;25.53;22.80;;;3.90;99.90;;;;;;5100305;27;20527;-78
2021/01/11 11:47:17;;;;;;;23.43;21.27;;;3.90;99.90;;;;;;5107284;27;20453;-78
2021/01/11 11:49:44;;;;;;;23.73;21.57;;;3.90;99.90;;;;;;5103338;27;20458;-78
2021/01/11 11:52:12;;;;;;;25.07;22.43;;;3.90;99.90;;;;;;5111002;27;20862;-80
2021/01/11 11:54:38;;;;;;;24.43;22.10;;;4.00;99.90;;;;;;5103971;27;20497;-78
2021/01/11 11:57:06;;;;;;;25.77;22.97;;;4.10;99.90;;;;;;5097868;27;20457;-77
2021/01/11 11:59:32;;;;;;;24.20;22.00;;;4.10;99.90;;;;;;5107904;27;20539;-78
2021/01/11 12:01:59;;;;;;;27.90;24.67;;;4.10;99.90;;;;;;5102350;27;20527;-80
2021/01/11 12:04:26;;;;;;;28.27;25.20;;;4.10;99.90;;;;;;5105131;27;20465;-78
2021/01/11 12:06:52;;;;;;;25.30;22.87;;;4.20;99.90;;;;;;5101291;27;20940;-80
2021/01/11 12:09:18;;;;;;;26.20;23.70;;;4.20;99.90;;;;;;5109229;27;20493;-78
2021/01/11 12:11:48;;;;;;;26.80;24.07;;;4.40;99.90;;;;;;5114078;27;20499;-77
2021/01/11 12:14:17;;;;;;;25.67;23.20;;;4.40;99.90;;;;;;5105252;27;20579;-77
2021/01/11 12:16:47;;;;;;;25.67;23.13;;;4.50;99.90;;;;;;5102295;27;20468;-78
2021/01/11 12:19:14;;;;;;;25.17;22.47;;;4.50;99.90;;;;;;5110916;27;20858;-77
2021/01/11 12:21:41;;;;;;;23.90;21.50;;;4.50;99.90;;;;;;5097921;27;20496;-80
2021/01/11 12:24:10;;;;;;;26.47;22.70;;;4.50;99.90;;;;;;5096056;27;20847;-76
2021/01/11 12:26:42;;;;;;;27.07;24.13;;;4.50;99.90;;;;;;5109000;27;20455;-78
2021/01/11 12:29:10;;;;;;;24.47;22.17;;;4.60;99.90;;;;;;5107396;27;20842;-76
2021/01/11 12:31:37;;;;;;;23.67;21.57;;;4.60;99.90;;;;;;5096023;27;20507;-78
2021/01/11 12:34:05;;;;;;;25.00;22.50;;;4.70;99.90;;;;;;5100824;27;20465;-79
2021/01/11 12:36:33;;;;;;;23.80;21.40;;;4.60;99.90;;;;;;5099187;27;20462;-76
2021/01/11 12:39:01;;;;;;;24.30;21.90;;;4.60;99.90;;;;;;5093524;27;20468;-77
2021/01/11 12:41:27;;;;;;;23.13;20.93;;;4.60;99.90;;;;;;5107334;27;20864;-77
2021/01/11 12:43:54;;;;;;;25.10;22.50;;;4.60;99.90;;;;;;5112747;27;20448;-78